createdAt,value
2022-11-03T00:02:30.123Z,72.00
2022-11-03T00:05:20.576Z,71.60
2022-11-03T00:07:51.779Z,74.70
2022-11-03T00:10:22.537Z,72.80
2022-11-03T00:12:53.033Z,73.50
2022-11-03T00:15:23.728Z,73.10
2022-11-03T00:17:54.499Z,73.90
2022-11-03T00:20:24.704Z,72.40
2022-11-03T00:22:56.166Z,72.30
2022-11-03T00:25:26.883Z,72.80
2022-11-03T00:27:58.683Z,73.20
2022-11-03T00:30:29.027Z,72.80
2022-11-03T00:33:00.908Z,72.20
2022-11-03T00:35:31.087Z,73.30
2022-11-03T00:38:01.295Z,73.80
2022-11-03T00:40:31.861Z,74.20
2022-11-03T00:43:04.120Z,73.30
2022-11-03T00:45:35.071Z,73.70
2022-11-03T00:48:23.092Z,72.70
2022-11-03T00:50:53.454Z,73.50
2022-11-03T00:53:23.840Z,74.70
2022-11-03T00:55:56.165Z,73.60
2022-11-03T00:58:26.585Z,73.30
2022-11-03T01:01:12.463Z,72.50
2022-11-03T01:04:08.651Z,66.50
2022-11-03T01:06:54.326Z,66.50
2022-11-03T01:09:30.947Z,68.10
2022-11-03T01:12:06.266Z,69.30
2022-11-03T01:14:48.435Z,72.10
2022-11-03T01:17:23.578Z,71.50
2022-11-03T01:19:54.324Z,69.00
2022-11-03T01:22:26.710Z,68.70
2022-11-03T01:24:58.890Z,69.20
2022-11-03T01:27:30.206Z,70.70
2022-11-03T01:30:03.186Z,70.80
2022-11-03T01:32:34.265Z,71.50
2022-11-03T01:35:06.076Z,68.90
2022-11-03T01:37:36.736Z,68.30
2022-11-03T01:40:09.084Z,66.40
2022-11-03T01:42:39.293Z,68.80
2022-11-03T01:45:11.079Z,66.80
2022-11-03T01:47:41.887Z,66.50
2022-11-03T01:50:18.874Z,68.30
2022-11-03T01:52:57.464Z,68.80
2022-11-03T01:55:42.740Z,69.20
2022-11-03T01:58:21.939Z,70.60
2022-11-03T02:00:57.387Z,69.80
2022-11-03T02:03:31.892Z,71.60
2022-11-03T02:06:02.395Z,69.70
2022-11-03T02:08:41.226Z,69.10
2022-11-03T02:11:30.898Z,68.20
2022-11-03T02:14:02.711Z,68.10
2022-11-03T02:16:36.492Z,67.80
2022-11-03T02:19:12.250Z,70.00
2022-11-03T02:22:30.141Z,69.00
2022-11-03T02:25:08.086Z,68.50
2022-11-03T02:27:40.405Z,67.30
2022-11-03T02:30:11.984Z,66.80
2022-11-03T02:32:56.913Z,67.00
2022-11-03T02:35:41.112Z,67.20
2022-11-03T02:38:18.105Z,67.10
2022-11-03T02:40:55.098Z,67.80
2022-11-03T02:43:28.992Z,65.20
2022-11-03T02:46:00.031Z,64.80
2022-11-03T02:48:31.109Z,62.50
2022-11-03T02:51:01.319Z,65.60
2022-11-03T02:53:33.281Z,65.30
2022-11-03T02:56:18.501Z,67.30
2022-11-03T02:59:09.265Z,68.10
2022-11-03T03:01:50.896Z,64.80
2022-11-03T03:04:39.488Z,63.40
2022-11-03T03:07:42.433Z,64.70
2022-11-03T03:10:28.486Z,67.40
2022-11-03T03:13:03.801Z,68.70
2022-11-03T03:16:03.546Z,69.70
2022-11-03T03:18:46.309Z,71.40
2022-11-03T03:21:23.458Z,74.80
2022-11-03T03:24:22.535Z,77.20
2022-11-03T03:27:10.829Z,76.00
2022-11-03T03:30:04.937Z,75.90
2022-11-03T03:32:42.590Z,76.20
2022-11-03T03:35:27.979Z,73.80
2022-11-03T03:38:07.367Z,72.90
2022-11-03T03:40:42.587Z,71.80
2022-11-03T03:43:16.521Z,72.10
2022-11-03T03:45:49.693Z,67.60
2022-11-03T03:48:21.216Z,68.30
2022-11-03T03:50:56.918Z,69.40
2022-11-03T03:53:32.422Z,64.60
2022-11-03T03:56:07.053Z,67.60
2022-11-03T03:58:37.260Z,68.10
2022-11-03T04:01:07.990Z,68.00
2022-11-03T04:03:38.400Z,68.50
2022-11-03T04:06:09.181Z,69.50
2022-11-03T04:08:40.134Z,68.60
2022-11-03T04:11:28.623Z,68.30
2022-11-03T04:14:16.954Z,66.00
2022-11-03T04:17:05.231Z,65.20
2022-11-03T04:19:53.404Z,66.70
2022-11-03T04:22:24.153Z,67.40
2022-11-03T04:24:55.067Z,67.20
2022-11-03T04:27:32.570Z,68.60
2022-11-03T04:30:23.904Z,69.40
2022-11-03T04:32:55.832Z,70.70
2022-11-03T04:35:31.024Z,71.20
2022-11-03T04:38:04.706Z,70.80
2022-11-03T04:40:35.574Z,70.20
2022-11-03T04:43:14.205Z,69.80
2022-11-03T04:45:48.063Z,69.60
2022-11-03T04:48:20.935Z,68.80
2022-11-03T04:50:54.984Z,69.90
2022-11-03T04:53:27.772Z,66.70
2022-11-03T04:56:01.524Z,68.60
2022-11-03T04:58:38.812Z,68.70
2022-11-03T05:01:12.987Z,67.70
2022-11-03T05:03:45.109Z,67.20
2022-11-03T05:06:26.551Z,68.00
2022-11-03T05:09:02.349Z,67.50
2022-11-03T05:11:42.178Z,67.70
2022-11-03T05:14:32.360Z,67.20
2022-11-03T05:17:05.039Z,66.20
2022-11-03T05:19:45.653Z,67.80
2022-11-03T05:22:24.382Z,66.70
2022-11-03T05:25:03.839Z,64.50
2022-11-03T05:27:34.069Z,66.90
2022-11-03T05:30:04.385Z,66.90
2022-11-03T05:32:36.882Z,67.30
2022-11-03T05:35:15.020Z,66.70
2022-11-03T05:37:45.341Z,68.10
2022-11-03T05:40:33.506Z,67.30
2022-11-03T05:43:08.444Z,65.70
2022-11-03T05:45:41.760Z,65.10
2022-11-03T05:48:40.807Z,65.40
2022-11-03T05:51:41.823Z,67.30
2022-11-03T05:54:24.748Z,66.40
2022-11-03T05:56:55.088Z,67.70
2022-11-03T05:59:31.882Z,69.60
2022-11-03T06:02:07.172Z,67.80
2022-11-03T06:04:42.791Z,68.20
2022-11-03T06:07:35.671Z,68.00
2022-11-03T06:10:20.360Z,68.30
2022-11-03T06:12:50.846Z,67.00
2022-11-03T06:15:37.306Z,67.50
2022-11-03T06:18:24.721Z,65.80
2022-11-03T06:21:00.792Z,67.80
2022-11-03T06:23:31.666Z,67.50
2022-11-03T06:26:04.333Z,66.70
2022-11-03T06:28:40.393Z,69.20
2022-11-03T06:31:23.357Z,67.40
2022-11-03T06:33:54.816Z,69.50
2022-11-03T06:36:29.112Z,68.40
2022-11-03T06:39:19.282Z,69.70
2022-11-03T06:41:49.938Z,67.60
2022-11-03T06:44:28.041Z,67.80
2022-11-03T06:47:02.416Z,68.50
2022-11-03T06:49:38.472Z,71.30
2022-11-03T06:52:35.416Z,71.90
2022-11-03T06:55:13.926Z,72.70
2022-11-03T06:57:50.525Z,73.50
2022-11-03T07:00:35.146Z,73.50
2022-11-03T07:03:25.049Z,72.50
2022-11-03T07:06:19.357Z,71.90
2022-11-03T07:08:59.172Z,73.50
2022-11-03T07:11:34.169Z,71.70
2022-11-03T07:14:28.068Z,72.00
2022-11-03T07:17:06.093Z,70.90
2022-11-03T07:19:43.754Z,71.80
2022-11-03T07:22:27.402Z,71.80
2022-11-03T07:25:03.046Z,73.10
2022-11-03T07:27:38.897Z,72.60
2022-11-03T07:30:32.682Z,73.20
2022-11-03T07:33:24.358Z,72.80
2022-11-03T07:38:49.990Z,73.10
2022-11-03T07:41:28.205Z,73.00
2022-11-03T07:44:03.298Z,72.70
2022-11-03T07:46:34.361Z,73.40
2022-11-03T07:49:06.522Z,72.30
2022-11-03T07:51:44.083Z,74.10
2022-11-03T07:54:25.551Z,73.50
2022-11-03T07:57:18.144Z,72.00
2022-11-03T07:59:56.252Z,73.40
2022-11-03T08:02:32.918Z,72.50
2022-11-03T08:05:05.666Z,72.30
2022-11-03T08:07:36.634Z,75.70
2022-11-03T08:10:18.396Z,74.70
2022-11-03T08:12:49.273Z,73.30
2022-11-03T08:15:19.897Z,75.20
2022-11-03T08:17:55.044Z,74.40
2022-11-03T08:20:26.400Z,75.70
2022-11-03T08:23:23.942Z,75.00
2022-11-03T08:25:47.326Z,75.90
2022-11-03T08:28:17.817Z,74.80
2022-11-03T08:30:48.089Z,75.80
2022-11-03T08:33:19.838Z,76.00
2022-11-03T08:35:50.934Z,76.30
2022-11-03T08:38:27.549Z,77.00
2022-11-03T08:41:00.449Z,76.40
2022-11-03T08:43:31.935Z,76.60
2022-11-03T08:46:13.834Z,77.20
2022-11-03T08:48:50.083Z,78.50
2022-11-03T08:51:22.234Z,76.30
2022-11-03T08:53:56.568Z,77.10
2022-11-03T08:56:28.493Z,78.20
2022-11-03T08:59:02.625Z,76.70
2022-11-03T09:01:34.281Z,78.00
2022-11-03T09:04:05.645Z,78.10
2022-11-03T09:06:36.705Z,77.80
2022-11-03T09:12:01.069Z,79.00
2022-11-03T09:14:31.758Z,80.90
2022-11-03T09:19:33.551Z,84.80
2022-11-03T09:22:04.793Z,86.80
2022-11-03T09:24:35.188Z,89.10
2022-11-03T09:27:06.663Z,90.20
2022-11-03T09:30:06.606Z,90.70
2022-11-03T09:32:28.504Z,90.50
2022-11-03T09:35:01.357Z,91.00
2022-11-03T09:37:33.816Z,91.10
2022-11-03T09:40:04.987Z,91.40
2022-11-03T09:42:40.476Z,91.40
2022-11-03T09:45:13.128Z,92.10
2022-11-03T09:47:47.657Z,92.00
2022-11-03T09:50:22.128Z,91.60
2022-11-03T09:52:57.419Z,91.30
2022-11-03T09:55:30.630Z,91.40
2022-11-03T09:58:04.746Z,91.30
2022-11-03T10:00:37.455Z,91.20
2022-11-03T10:03:08.171Z,90.50
2022-11-03T10:05:38.904Z,91.00
2022-11-03T10:08:38.429Z,91.10
2022-11-03T10:11:12.558Z,91.30
2022-11-03T10:13:48.416Z,91.50
2022-11-03T10:16:22.757Z,91.70
2022-11-03T10:18:58.778Z,91.60
2022-11-03T10:21:33.418Z,91.70
2022-11-03T10:24:04.424Z,91.90
2022-11-03T10:26:50.634Z,91.50
2022-11-03T10:29:32.496Z,91.10
2022-11-03T10:32:05.147Z,91.00
2022-11-03T10:34:44.539Z,90.80
2022-11-03T10:37:25.097Z,91.10
2022-11-03T10:40:02.468Z,91.10
2022-11-03T10:42:36.123Z,91.60
2022-11-03T10:45:22.729Z,91.80
2022-11-03T10:48:05.097Z,92.30
2022-11-03T10:50:37.250Z,91.60
2022-11-03T10:53:10.012Z,91.90
2022-11-03T10:55:43.159Z,91.90
2022-11-03T10:58:14.622Z,92.00
2022-11-03T11:00:45.282Z,91.80
2022-11-03T11:03:20.596Z,91.30
2022-11-03T11:05:51.927Z,91.40
2022-11-03T11:08:30.575Z,91.80
2022-11-03T11:11:02.050Z,91.90
2022-11-03T11:13:33.230Z,91.90
2022-11-03T11:16:07.177Z,91.90
2022-11-03T11:18:38.334Z,92.40
2022-11-03T11:21:21.621Z,91.90
2022-11-03T11:23:55.087Z,92.00
2022-11-03T11:26:30.839Z,92.10
2022-11-03T11:29:36.080Z,92.60
2022-11-03T11:32:50.097Z,92.90
2022-11-03T11:35:25.038Z,92.70
2022-11-03T11:37:56.471Z,92.60
2022-11-03T11:40:27.341Z,92.90
2022-11-03T11:43:29.389Z,92.70
2022-11-03T11:46:26.166Z,92.80
2022-11-03T11:49:19.276Z,92.90
2022-11-03T11:51:50.656Z,93.30
2022-11-03T11:54:23.579Z,93.00
2022-11-03T11:56:53.903Z,93.00
2022-11-03T11:59:27.698Z,93.00
2022-11-03T12:01:59.234Z,92.90
2022-11-03T12:04:32.937Z,93.00
2022-11-03T12:07:03.298Z,93.40
2022-11-03T12:09:33.787Z,93.50
2022-11-03T12:12:08.553Z,93.80
2022-11-03T12:14:41.062Z,94.00
2022-11-03T12:17:20.455Z,94.20
2022-11-03T12:19:57.473Z,94.30
2022-11-03T12:22:27.871Z,94.30
2022-11-03T12:25:03.066Z,94.40
2022-11-03T12:27:34.888Z,94.20
2022-11-03T12:30:10.820Z,94.30
2022-11-03T12:32:41.605Z,94.40
2022-11-03T12:35:13.659Z,94.30
2022-11-03T12:37:44.056Z,94.60
2022-11-03T12:40:16.196Z,95.10
2022-11-03T12:42:46.540Z,95.40
2022-11-03T12:45:16.750Z,95.70
2022-11-03T12:47:46.950Z,95.80
2022-11-03T12:50:17.363Z,95.80
2022-11-03T12:52:47.584Z,95.70
2022-11-03T12:55:17.913Z,95.90
2022-11-03T12:57:48.277Z,95.70
2022-11-03T13:00:19.716Z,95.50
2022-11-03T13:02:51.080Z,95.50
2022-11-03T13:05:21.859Z,95.50
2022-11-03T13:07:52.056Z,95.50
2022-11-03T13:10:23.707Z,95.30
2022-11-03T13:12:54.578Z,95.20
2022-11-03T13:15:24.878Z,95.30
2022-11-03T13:20:46.666Z,95.30
2022-11-03T13:23:20.473Z,95.20
2022-11-03T13:25:54.260Z,94.80
2022-11-03T13:28:24.730Z,95.30
2022-11-03T13:30:55.940Z,95.20
2022-11-03T13:33:26.657Z,95.30
2022-11-03T13:35:57.177Z,95.00
2022-11-03T13:38:31.232Z,94.90
2022-11-03T13:41:07.043Z,94.90
2022-11-03T13:43:38.987Z,94.90
2022-11-03T13:46:09.685Z,95.00
2022-11-03T13:51:30.108Z,95.20
2022-11-03T13:59:41.049Z,95.00
2022-11-03T14:05:07.248Z,95.20
2022-11-03T14:07:39.725Z,95.00
2022-11-03T14:10:10.610Z,95.30
2022-11-03T14:12:40.809Z,95.50
2022-11-03T14:15:13.841Z,95.40
2022-11-03T14:17:44.633Z,95.70
2022-11-03T14:20:16.173Z,95.80
2022-11-03T14:22:47.088Z,96.30
2022-11-03T14:25:17.799Z,96.40
2022-11-03T14:27:49.463Z,96.10
2022-11-03T14:30:21.753Z,96.00
2022-11-03T14:32:56.760Z,95.80
2022-11-03T14:35:29.774Z,96.10
2022-11-03T14:38:00.363Z,96.00
2022-11-03T14:40:48.956Z,96.20
2022-11-03T14:43:19.249Z,96.10
2022-11-03T14:45:50.442Z,96.40
2022-11-03T14:48:20.681Z,96.30
2022-11-03T14:50:51.511Z,96.40
2022-11-03T14:53:23.443Z,96.60
2022-11-03T14:55:53.736Z,96.40
2022-11-03T14:58:23.926Z,96.40
2022-11-03T15:00:54.283Z,96.30
2022-11-03T15:03:24.562Z,96.30
2022-11-03T15:06:15.766Z,96.20
2022-11-03T15:08:48.927Z,96.00
2022-11-03T15:11:22.742Z,96.20
2022-11-03T15:13:53.028Z,96.30
2022-11-03T15:16:24.109Z,96.10
2022-11-03T15:18:55.313Z,95.80
2022-11-03T15:21:26.353Z,96.10
2022-11-03T15:26:47.595Z,95.80
2022-11-03T15:29:17.899Z,95.50
2022-11-03T15:31:48.731Z,95.40
2022-11-03T15:34:19.902Z,95.50
2022-11-03T15:36:50.579Z,95.70
2022-11-03T15:39:21.360Z,95.80
2022-11-03T15:41:51.567Z,95.80
2022-11-03T15:44:26.347Z,95.70
2022-11-03T15:46:57.986Z,95.70
2022-11-03T15:49:28.364Z,95.50
2022-11-03T15:51:58.653Z,95.30
2022-11-03T15:54:29.343Z,95.50
2022-11-03T15:57:04.093Z,95.80
2022-11-03T15:59:44.868Z,95.50
2022-11-03T16:02:35.712Z,95.60
2022-11-03T16:05:05.565Z,95.90
2022-11-03T16:07:36.504Z,95.90
2022-11-03T16:10:07.075Z,96.00
2022-11-03T16:12:37.942Z,96.00
2022-11-03T16:15:10.393Z,96.00
2022-11-03T16:17:45.363Z,95.90
2022-11-03T16:20:16.189Z,95.90
2022-11-03T16:22:46.477Z,95.80
2022-11-03T16:25:20.600Z,95.50
2022-11-03T16:27:52.255Z,95.60
2022-11-03T16:30:22.939Z,95.80
2022-11-03T16:32:56.598Z,95.80
2022-11-03T16:35:26.849Z,95.90
2022-11-03T16:37:57.499Z,95.90
2022-11-03T16:40:27.686Z,95.70
2022-11-03T16:42:58.002Z,95.50
2022-11-03T16:45:37.987Z,95.50
2022-11-03T16:48:12.463Z,95.40
2022-11-03T16:50:44.686Z,95.40
2022-11-03T16:53:15.358Z,95.40
2022-11-03T16:55:51.124Z,95.30
2022-11-03T16:58:22.436Z,94.90
2022-11-03T17:00:53.155Z,94.80
2022-11-03T17:03:25.578Z,94.90
2022-11-03T17:05:56.349Z,95.00
2022-11-03T17:08:51.898Z,94.90
2022-11-03T17:11:38.905Z,94.70
2022-11-03T17:14:15.078Z,94.80
2022-11-03T17:16:51.397Z,95.10
2022-11-03T17:19:22.624Z,94.90
2022-11-03T17:21:52.931Z,94.90
2022-11-03T17:24:30.158Z,95.20
2022-11-03T17:27:29.220Z,95.40
2022-11-03T17:30:03.971Z,95.60
2022-11-03T17:32:41.856Z,95.90
2022-11-03T17:35:28.604Z,96.00
2022-11-03T17:38:00.677Z,95.90
2022-11-03T17:40:32.922Z,96.00
2022-11-03T17:43:03.634Z,96.00
2022-11-03T17:45:35.065Z,96.00
2022-11-03T17:48:05.355Z,95.90
2022-11-03T17:50:36.715Z,96.00
2022-11-03T17:53:08.709Z,95.80
2022-11-03T17:55:40.896Z,95.70
2022-11-03T17:58:13.467Z,95.70
2022-11-03T18:00:43.832Z,95.60
2022-11-03T18:03:16.728Z,95.50
2022-11-03T18:05:46.962Z,95.50
2022-11-03T18:08:21.764Z,95.60
2022-11-03T18:13:49.378Z,95.40
2022-11-03T18:16:21.015Z,95.60
2022-11-03T18:19:00.406Z,95.70
2022-11-03T18:21:36.889Z,95.70
2022-11-03T18:24:19.525Z,95.70
2022-11-03T18:26:50.872Z,95.70
2022-11-03T18:29:22.740Z,95.60
2022-11-03T18:31:53.479Z,95.60
2022-11-03T18:34:30.843Z,95.40
2022-11-03T18:37:01.590Z,95.40
2022-11-03T18:39:36.551Z,95.50
2022-11-03T18:42:23.055Z,95.70
2022-11-03T18:44:54.846Z,95.90
2022-11-03T18:47:36.560Z,95.80
2022-11-03T18:50:09.516Z,95.90
2022-11-03T18:52:54.766Z,96.00
2022-11-03T18:55:25.330Z,96.30
2022-11-03T18:57:58.335Z,96.00
2022-11-03T19:00:31.182Z,96.00
2022-11-03T19:03:01.505Z,96.10
2022-11-03T19:05:31.726Z,96.00
2022-11-03T19:08:02.006Z,95.40
2022-11-03T19:10:32.325Z,95.40
2022-11-03T19:13:02.577Z,95.70
2022-11-03T19:15:33.170Z,96.40
2022-11-03T19:18:07.362Z,96.20
2022-11-03T19:20:37.666Z,96.20
2022-11-03T19:23:08.664Z,96.30
2022-11-03T19:25:45.869Z,96.10
2022-11-03T19:28:23.147Z,96.00
2022-11-03T19:30:58.026Z,95.90
2022-11-03T19:33:32.424Z,96.10
2022-11-03T19:36:03.184Z,96.10
2022-11-03T19:38:35.801Z,96.10
2022-11-03T19:41:24.240Z,96.20
2022-11-03T19:43:56.007Z,96.30
2022-11-03T19:46:27.245Z,96.30
2022-11-03T19:48:59.422Z,96.40
2022-11-03T19:51:31.820Z,96.50
2022-11-03T19:54:02.521Z,96.50
2022-11-03T19:56:32.864Z,96.80
2022-11-03T19:59:08.448Z,96.90
2022-11-03T20:01:39.179Z,97.30
2022-11-03T20:04:10.286Z,97.00
2022-11-03T20:06:42.903Z,97.00
2022-11-03T20:09:20.989Z,97.60
2022-11-03T20:11:51.690Z,97.20
2022-11-03T20:14:27.379Z,97.10
2022-11-03T20:17:15.735Z,96.40
2022-11-03T20:19:46.944Z,96.40
2022-11-03T20:22:30.239Z,96.40
2022-11-03T20:25:06.547Z,96.10
2022-11-03T20:27:37.399Z,96.30
2022-11-03T20:30:08.599Z,95.50
2022-11-03T20:32:38.971Z,95.20
2022-11-03T20:35:09.556Z,95.00
2022-11-03T20:37:47.833Z,95.10
2022-11-03T20:40:23.937Z,95.20
2022-11-03T20:43:02.029Z,95.00
2022-11-03T20:45:32.910Z,95.10
2022-11-03T20:48:03.163Z,94.60
2022-11-03T20:50:34.005Z,94.50
2022-11-03T20:53:04.654Z,93.10
2022-11-03T20:55:34.961Z,93.30
2022-11-03T20:58:05.954Z,93.30
2022-11-03T21:00:37.213Z,93.60
2022-11-03T21:03:44.899Z,94.00
2022-11-03T21:06:11.406Z,93.40
2022-11-03T21:08:42.197Z,93.80
2022-11-03T21:11:29.417Z,93.70
2022-11-03T21:14:05.071Z,93.30
2022-11-03T21:16:53.972Z,93.10
2022-11-03T21:20:03.705Z,93.00
2022-11-03T21:22:53.469Z,92.60
2022-11-03T21:25:26.314Z,91.90
2022-11-03T21:27:56.896Z,91.30
2022-11-03T21:30:27.094Z,90.20
2022-11-03T21:33:11.228Z,87.50
2022-11-03T21:35:43.456Z,86.10
2022-11-03T21:38:15.304Z,84.80
2022-11-03T21:40:56.402Z,84.10
2022-11-03T21:43:45.963Z,84.30
2022-11-03T21:46:16.590Z,84.20
2022-11-03T21:49:05.026Z,83.90
2022-11-03T21:51:35.703Z,82.00
2022-11-03T21:54:07.883Z,82.30
2022-11-03T21:56:38.512Z,82.90
2022-11-03T21:59:10.407Z,84.10
2022-11-03T22:01:42.350Z,85.00
2022-11-03T22:04:13.013Z,84.80
2022-11-03T22:06:44.151Z,83.90
2022-11-03T22:09:14.780Z,84.40
2022-11-03T22:11:45.460Z,83.70
2022-11-03T22:14:16.280Z,80.00
2022-11-03T22:16:47.565Z,82.00
2022-11-03T22:19:42.113Z,83.40
2022-11-03T22:22:36.398Z,83.60
2022-11-03T22:25:25.338Z,85.00
2022-11-03T22:27:55.969Z,85.60
2022-11-03T22:30:44.553Z,84.80
2022-11-03T22:33:16.065Z,85.80
2022-11-03T22:36:04.568Z,84.40
2022-11-03T22:38:56.022Z,83.30
2022-11-03T22:41:45.902Z,81.00
2022-11-03T22:44:34.416Z,81.70
2022-11-03T22:47:08.099Z,83.30
2022-11-03T22:49:39.482Z,83.70
2022-11-03T22:52:13.018Z,83.50
2022-11-03T22:54:43.722Z,84.50
2022-11-03T22:57:16.436Z,84.80
2022-11-03T22:59:47.405Z,85.90
2022-11-03T23:02:18.255Z,84.80
2022-11-03T23:04:51.140Z,82.80
2022-11-03T23:07:25.747Z,83.50
2022-11-03T23:09:58.730Z,81.90
2022-11-03T23:12:30.941Z,81.20
2022-11-03T23:15:20.966Z,81.10
2022-11-03T23:18:11.179Z,82.10
2022-11-03T23:21:00.752Z,78.80
2022-11-03T23:23:50.712Z,77.50
2022-11-03T23:26:22.170Z,78.40
2022-11-03T23:28:52.864Z,79.00
2022-11-03T23:31:34.944Z,76.30
2022-11-03T23:34:07.305Z,76.30
2022-11-03T23:36:39.082Z,76.90
2022-11-03T23:39:10.427Z,76.80
2022-11-03T23:41:41.303Z,75.90
2022-11-03T23:44:17.206Z,73.50
2022-11-03T23:47:06.173Z,74.70
2022-11-03T23:49:36.873Z,75.30
2022-11-03T23:52:07.698Z,73.10
2022-11-03T23:54:38.000Z,75.30
2022-11-03T23:57:26.562Z,74.60
2022-11-03T23:59:56.806Z,73.90
